Time;durP1;ratioP1;P1;durP2;ratioP2;P2;SDS_P1;SDS_P2;PMS_P1;PMS_P2;Temp;Humidity;BMP_temperature;BMP_pressure;BME280_temperature;BME280_humidity;BME280_pressure;Samples;Min_cycle;Max_cycle;Signal;HPM_P1;HPM_P2
2023/06/01 00:01:58;;;;;;;9.32;4.72;;;12.30;73.80;;;;;;5028416;28;20041;-71
2023/06/01 00:04:23;;;;;;;9.25;4.43;;;12.30;73.80;;;;;;5045027;28;20127;-69
2023/06/01 00:06:49;;;;;;;12.00;4.53;;;12.30;73.60;;;;;;5032422;28;20060;-68
2023/06/01 00:09:15;;;;;;;9.10;4.15;;;12.30;73.80;;;;;;5019777;28;20040;-67
2023/06/01 00:11:40;;;;;;;9.05;4.80;;;12.30;74.00;;;;;;5019518;28;20200;-66
2023/06/01 00:14:06;;;;;;;14.70;4.93;;;12.30;74.60;;;;;;5023737;28;20037;-68
2023/06/01 00:16:32;;;;;;;11.55;4.43;;;12.30;74.00;;;;;;5010357;28;20038;-67
2023/06/01 00:19:00;;;;;;;10.20;4.63;;;12.20;74.10;;;;;;5026046;28;20052;-66
2023/06/01 00:21:27;;;;;;;11.63;5.50;;;12.30;74.10;;;;;;5023649;28;20081;-67
2023/06/01 00:23:53;;;;;;;12.73;5.15;;;12.30;74.30;;;;;;5024614;28;24532;-68
2023/06/01 00:26:18;;;;;;;11.07;5.35;;;12.30;74.30;;;;;;5042594;28;20138;-67
2023/06/01 00:28:44;;;;;;;12.27;4.88;;;12.30;74.30;;;;;;5027858;28;20035;-67
2023/06/01 00:31:10;;;;;;;11.52;5.30;;;12.30;74.40;;;;;;5025705;28;20063;-69
2023/06/01 00:33:35;;;;;;;11.07;5.05;;;12.30;74.60;;;;;;5035067;28;20033;-68
2023/06/01 00:36:01;;;;;;;13.65;4.65;;;12.30;74.50;;;;;;5023067;28;20037;-66
2023/06/01 00:38:27;;;;;;;10.38;4.43;;;12.20;74.60;;;;;;5027114;28;20041;-68
2023/06/01 00:40:52;;;;;;;12.02;5.07;;;12.20;74.70;;;;;;5029833;28;20541;-71
2023/06/01 00:43:18;;;;;;;7.97;5.18;;;12.10;74.70;;;;;;5045123;28;20331;-67
2023/06/01 00:45:44;;;;;;;9.88;4.47;;;12.20;74.40;;;;;;5013497;28;20037;-68
2023/06/01 00:48:12;;;;;;;7.05;4.15;;;12.20;74.30;;;;;;5041660;28;20099;-69
2023/06/01 00:50:38;;;;;;;13.85;4.82;;;12.10;74.30;;;;;;5030331;28;20038;-67
2023/06/01 00:53:08;;;;;;;12.45;5.22;;;12.10;74.40;;;;;;5026328;28;20131;-69
2023/06/01 00:55:34;;;;;;;12.50;5.15;;;12.10;74.30;;;;;;5025973;28;20059;-68
2023/06/01 00:58:01;;;;;;;10.25;4.60;;;12.10;74.40;;;;;;5029553;28;20533;-70
2023/06/01 01:00:29;;;;;;;11.57;4.85;;;12.10;74.50;;;;;;5032582;28;20156;-69
2023/06/01 01:02:56;;;;;;;13.27;5.03;;;12.10;74.60;;;;;;5029424;28;20055;-67
2023/06/01 01:05:26;;;;;;;14.13;4.85;;;12.10;74.50;;;;;;5013891;28;20041;-69
2023/06/01 01:07:59;;;;;;;12.97;4.90;;;12.10;74.50;;;;;;5024026;28;20056;-65
2023/06/01 01:10:41;;;;;;;11.52;4.60;;;12.00;74.50;;;;;;5023528;28;20032;-68
2023/06/01 01:13:18;;;;;;;16.15;5.25;;;11.90;74.80;;;;;;5023424;28;20109;-66
2023/06/01 01:16:12;;;;;;;13.23;4.82;;;12.00;74.70;;;;;;5020410;28;20052;-69
2023/06/01 01:18:58;;;;;;;13.70;5.05;;;12.00;74.80;;;;;;5006327;28;20144;-67
2023/06/01 01:21:30;;;;;;;11.73;4.75;;;12.00;75.70;;;;;;5024330;28;20416;-67
2023/06/01 01:24:23;;;;;;;10.27;4.90;;;12.00;74.50;;;;;;5023858;28;20090;-67
2023/06/01 01:26:59;;;;;;;14.70;5.43;;;12.00;74.80;;;;;;5023512;28;20516;-68
2023/06/01 01:29:28;;;;;;;13.95;4.75;;;11.90;74.60;;;;;;5025287;28;20044;-66
2023/06/01 01:31:55;;;;;;;15.40;4.28;;;11.90;74.40;;;;;;5027749;28;20040;-69
2023/06/01 01:34:24;;;;;;;8.13;4.20;;;11.90;74.50;;;;;;5026753;28;20126;-65
2023/06/01 01:36:49;;;;;;;12.25;4.32;;;11.90;74.60;;;;;;5019861;28;20041;-67
2023/06/01 01:39:15;;;;;;;9.15;4.25;;;11.90;74.70;;;;;;5016230;28;20049;-67
2023/06/01 01:41:40;;;;;;;12.23;4.40;;;11.90;74.60;;;;;;5028599;28;20076;-68
2023/06/01 01:44:06;;;;;;;12.27;4.68;;;11.80;74.60;;;;;;5041930;28;20025;-69
2023/06/01 01:46:58;;;;;;;12.25;5.00;;;11.90;74.60;;;;;;5012723;28;20133;-66
2023/06/01 01:49:30;;;;;;;10.25;4.38;;;11.90;75.30;;;;;;5029988;28;20488;-67
2023/06/01 01:52:31;;;;;;;12.85;4.50;;;11.90;74.90;;;;;;5025508;28;20060;-67
2023/06/01 01:54:58;;;;;;;12.88;4.28;;;11.80;75.40;;;;;;5033480;28;20051;-67
2023/06/01 01:57:25;;;;;;;7.45;4.30;;;11.80;74.90;;;;;;5027046;28;20038;-69
2023/06/01 01:59:52;;;;;;;9.88;4.22;;;11.90;75.00;;;;;;5028108;28;20409;-68
2023/06/01 02:02:17;;;;;;;14.77;5.35;;;11.90;75.00;;;;;;5026474;28;20060;-69
2023/06/01 02:04:45;;;;;;;8.18;4.80;;;11.90;75.10;;;;;;5028041;28;20041;-68
2023/06/01 02:07:12;;;;;;;13.35;5.65;;;11.90;75.20;;;;;;5023936;28;20045;-69
2023/06/01 02:09:39;;;;;;;11.50;4.70;;;11.90;75.30;;;;;;5025762;28;20052;-66
2023/06/01 02:12:05;;;;;;;11.80;4.88;;;11.90;75.30;;;;;;5026533;28;20072;-68
2023/06/01 02:14:30;;;;;;;13.98;4.93;;;11.70;75.50;;;;;;5023677;28;20718;-68
2023/06/01 02:16:56;;;;;;;15.75;4.90;;;11.80;75.40;;;;;;5025688;28;20379;-69
2023/06/01 02:19:22;;;;;;;11.73;4.53;;;11.80;75.50;;;;;;5029644;28;20565;-69
2023/06/01 02:21:47;;;;;;;15.68;5.00;;;11.70;75.50;;;;;;5022064;28;20397;-68
2023/06/01 02:24:13;;;;;;;11.00;4.20;;;11.80;75.70;;;;;;5028311;28;20052;-68
2023/06/01 02:26:39;;;;;;;13.55;5.10;;;11.80;75.60;;;;;;5041758;28;20045;-66
2023/06/01 02:29:05;;;;;;;13.48;4.95;;;11.80;75.70;;;;;;5018949;28;20050;-66
2023/06/01 02:31:34;;;;;;;14.43;4.30;;;11.80;75.50;;;;;;5032020;28;20044;-68
2023/06/01 02:34:00;;;;;;;11.40;4.68;;;11.80;75.50;;;;;;5008958;28;20128;-68
2023/06/01 02:36:29;;;;;;;9.75;4.45;;;11.80;75.40;;;;;;5021697;28;20041;-67
2023/06/01 02:38:55;;;;;;;10.73;4.50;;;11.70;75.50;;;;;;5028987;28;20040;-69
2023/06/01 02:41:21;;;;;;;10.23;4.55;;;11.70;75.40;;;;;;5022096;28;20175;-67
2023/06/01 02:43:47;;;;;;;11.05;4.00;;;11.70;75.30;;;;;;5029104;28;20053;-66
2023/06/01 02:46:13;;;;;;;11.07;4.15;;;11.70;75.40;;;;;;5024198;28;20045;-68
2023/06/01 02:48:39;;;;;;;16.65;5.53;;;11.70;75.50;;;;;;5039474;28;20623;-69
2023/06/01 02:51:05;;;;;;;7.47;3.92;;;11.70;75.40;;;;;;5026113;28;20040;-67
2023/06/01 02:53:31;;;;;;;11.05;4.13;;;11.70;75.50;;;;;;5018508;28;20736;-69
2023/06/01 02:55:56;;;;;;;7.72;3.65;;;11.70;75.60;;;;;;5029665;28;20048;-67
2023/06/01 02:58:22;;;;;;;12.82;4.40;;;11.70;75.50;;;;;;5021974;28;20048;-67
2023/06/01 03:00:48;;;;;;;7.82;3.85;;;11.70;75.60;;;;;;5029822;28;20040;-69
2023/06/01 03:03:14;;;;;;;7.75;3.67;;;11.70;75.60;;;;;;5022271;28;21404;-68
2023/06/01 03:05:39;;;;;;;9.70;3.72;;;11.70;75.60;;;;;;5027225;28;20407;-68
2023/06/01 03:08:06;;;;;;;11.43;3.92;;;11.70;75.60;;;;;;5025130;28;20037;-68
2023/06/01 03:10:31;;;;;;;6.00;3.88;;;11.70;75.50;;;;;;5011186;28;20045;-69
2023/06/01 03:12:57;;;;;;;10.68;3.88;;;11.70;75.60;;;;;;5017601;28;20144;-66
2023/06/01 03:15:23;;;;;;;7.75;3.75;;;11.70;75.60;;;;;;5009032;28;20382;-66
2023/06/01 03:17:48;;;;;;;9.48;4.28;;;11.70;75.50;;;;;;5025441;28;20588;-67
2023/06/01 03:20:16;;;;;;;11.65;4.78;;;11.60;75.40;;;;;;5025100;28;20374;-65
2023/06/01 03:22:43;;;;;;;10.93;4.10;;;11.60;75.30;;;;;;5020630;28;20091;-68
2023/06/01 03:25:12;;;;;;;9.82;4.43;;;11.70;75.30;;;;;;5022064;28;20052;-68
2023/06/01 03:27:41;;;;;;;9.82;4.55;;;11.70;75.30;;;;;;5022919;28;20545;-68
2023/06/01 03:30:11;;;;;;;7.75;3.97;;;11.60;75.20;;;;;;5024145;28;20045;-67
2023/06/01 03:32:37;;;;;;;9.50;4.28;;;11.70;75.10;;;;;;5023474;28;20047;-67
2023/06/01 03:35:04;;;;;;;8.10;4.20;;;11.70;75.10;;;;;;5021304;28;20036;-67
2023/06/01 03:37:30;;;;;;;6.18;3.67;;;11.70;75.00;;;;;;5001170;28;20096;-65
2023/06/01 03:39:55;;;;;;;6.68;3.17;;;11.70;75.00;;;;;;5009340;28;20045;-69
2023/06/01 03:42:21;;;;;;;10.32;3.53;;;11.60;75.00;;;;;;5027861;28;20042;-66
2023/06/01 03:44:47;;;;;;;8.65;3.22;;;11.70;75.00;;;;;;5024418;28;20505;-69
2023/06/01 03:47:14;;;;;;;7.90;3.42;;;11.70;75.10;;;;;;5028344;28;20470;-66
2023/06/01 03:49:39;;;;;;;5.95;3.28;;;11.60;75.20;;;;;;5029061;28;20120;-69
2023/06/01 03:52:06;;;;;;;10.68;3.28;;;11.60;75.40;;;;;;5027377;28;20144;-69
2023/06/01 03:54:31;;;;;;;7.88;3.05;;;11.60;75.40;;;;;;5035078;28;20378;-68
2023/06/01 03:56:57;;;;;;;5.82;3.00;;;11.60;75.40;;;;;;5027494;28;20166;-68
2023/06/01 03:59:22;;;;;;;7.95;3.78;;;11.70;75.60;;;;;;5028836;28;20041;-68
2023/06/01 04:01:49;;;;;;;7.70;3.85;;;11.60;75.60;;;;;;5035318;28;20056;-68
2023/06/01 04:04:16;;;;;;;11.05;3.38;;;11.70;75.60;;;;;;5042957;28;20362;-66
2023/06/01 04:06:45;;;;;;;8.70;3.42;;;11.70;75.70;;;;;;5027452;28;20034;-68
2023/06/01 04:09:11;;;;;;;9.60;3.40;;;11.60;75.70;;;;;;5029727;28;20041;-67
2023/06/01 04:11:38;;;;;;;8.02;3.33;;;11.70;75.80;;;;;;5027571;28;20030;-69
2023/06/01 04:14:04;;;;;;;6.53;3.25;;;11.70;76.00;;;;;;5036242;28;20041;-69
2023/06/01 04:16:30;;;;;;;7.95;3.20;;;11.70;76.00;;;;;;5037842;28;20373;-69
2023/06/01 04:18:56;;;;;;;9.77;4.68;;;11.70;76.10;;;;;;5035994;28;20040;-68
2023/06/01 04:21:22;;;;;;;9.02;3.25;;;11.60;76.10;;;;;;5034123;28;20476;-69
2023/06/01 04:23:48;;;;;;;11.30;3.95;;;11.70;76.40;;;;;;5036211;28;20049;-68
2023/06/01 04:26:15;;;;;;;10.23;4.03;;;11.70;76.40;;;;;;5039320;28;20033;-69
2023/06/01 04:28:43;;;;;;;10.43;3.78;;;11.70;76.40;;;;;;5033499;28;20051;-67
2023/06/01 04:31:16;;;;;;;10.65;3.72;;;11.80;76.60;;;;;;5040098;28;20085;-66
2023/06/01 04:33:44;;;;;;;11.63;3.70;;;11.80;76.70;;;;;;5034832;28;20584;-67
2023/06/01 04:36:12;;;;;;;10.30;3.65;;;11.80;76.70;;;;;;5037276;28;20037;-69
2023/06/01 04:38:41;;;;;;;18.58;5.05;;;11.80;76.70;;;;;;5036595;28;20859;-67
2023/06/01 04:41:09;;;;;;;10.40;4.35;;;11.70;76.80;;;;;;5035815;28;20199;-69
2023/06/01 04:43:38;;;;;;;10.60;3.78;;;11.70;76.80;;;;;;5036345;28;20041;-69
2023/06/01 04:46:05;;;;;;;9.65;3.90;;;11.70;76.90;;;;;;5035494;28;20118;-68
2023/06/01 04:48:31;;;;;;;10.15;4.32;;;11.80;77.00;;;;;;5033592;28;20569;-69
2023/06/01 04:50:58;;;;;;;15.00;4.47;;;11.80;77.30;;;;;;5034723;28;20041;-69
2023/06/01 04:53:24;;;;;;;8.50;4.28;;;11.80;77.30;;;;;;5031493;28;20046;-67
2023/06/01 04:55:50;;;;;;;9.82;5.03;;;11.90;77.40;;;;;;5038365;28;20033;-68
2023/06/01 04:58:16;;;;;;;16.23;4.63;;;11.90;77.40;;;;;;5040843;28;20077;-69
2023/06/01 05:00:42;;;;;;;9.93;4.38;;;11.90;77.60;;;;;;5035319;28;20114;-67
2023/06/01 05:03:07;;;;;;;11.85;4.32;;;11.90;77.70;;;;;;5014917;28;20077;-66
2023/06/01 05:05:33;;;;;;;11.48;4.70;;;11.90;77.80;;;;;;5023497;28;20061;-66
2023/06/01 05:07:59;;;;;;;13.15;4.18;;;11.90;77.80;;;;;;5019115;28;20045;-69
2023/06/01 05:10:25;;;;;;;12.10;4.07;;;11.90;77.90;;;;;;5019804;28;20422;-69
2023/06/01 05:12:50;;;;;;;8.23;3.67;;;11.90;78.00;;;;;;5021688;28;20443;-67
2023/06/01 05:15:16;;;;;;;12.30;4.03;;;12.00;78.10;;;;;;5011890;28;20599;-70
2023/06/01 05:17:42;;;;;;;9.75;3.72;;;12.00;78.90;;;;;;5022325;28;20053;-69
2023/06/01 05:20:11;;;;;;;13.13;4.13;;;12.00;78.20;;;;;;5022797;28;20057;-66
2023/06/01 05:22:37;;;;;;;12.70;3.88;;;12.00;78.30;;;;;;5029084;28;20342;-69
2023/06/01 05:25:03;;;;;;;15.07;4.03;;;12.00;78.50;;;;;;5022977;28;20047;-66
2023/06/01 05:27:28;;;;;;;9.00;4.07;;;11.90;78.60;;;;;;5028608;28;20123;-68
2023/06/01 05:29:55;;;;;;;10.27;3.60;;;12.00;78.80;;;;;;5027005;28;20131;-69
2023/06/01 05:32:20;;;;;;;6.80;3.30;;;12.00;78.80;;;;;;5033933;28;20154;-67
2023/06/01 05:34:46;;;;;;;8.50;3.70;;;12.00;78.90;;;;;;5030620;28;20530;-69
2023/06/01 05:37:12;;;;;;;8.68;3.90;;;12.00;79.10;;;;;;5023007;28;20094;-69
2023/06/01 05:39:37;;;;;;;9.30;3.90;;;12.00;79.30;;;;;;5028243;28;20122;-69
2023/06/01 05:42:03;;;;;;;10.60;4.20;;;12.00;79.50;;;;;;5044113;28;20059;-69
2023/06/01 05:44:31;;;;;;;9.60;3.95;;;12.00;80.10;;;;;;5028508;28;20052;-69
2023/06/01 05:46:57;;;;;;;10.38;4.13;;;12.00;80.40;;;;;;5025334;28;22078;-69
2023/06/01 05:49:22;;;;;;;12.45;3.65;;;12.00;80.60;;;;;;5009321;28;20033;-65
2023/06/01 05:51:48;;;;;;;8.48;3.63;;;12.00;80.80;;;;;;5024650;28;20518;-67
2023/06/01 05:54:14;;;;;;;15.93;4.63;;;12.00;80.70;;;;;;5029907;28;20423;-68
2023/06/01 05:56:42;;;;;;;8.38;3.67;;;12.10;81.00;;;;;;5011180;28;20044;-69
2023/06/01 05:59:08;;;;;;;9.13;3.50;;;12.10;81.20;;;;;;5043201;28;20820;-67
2023/06/01 06:01:34;;;;;;;10.68;4.20;;;12.10;81.50;;;;;;5032023;28;20120;-66
2023/06/01 06:03:59;;;;;;;7.82;3.85;;;12.10;81.60;;;;;;5026492;28;20735;-69
2023/06/01 06:06:28;;;;;;;7.28;3.78;;;12.20;81.80;;;;;;5040491;28;20072;-69
2023/06/01 06:08:53;;;;;;;8.23;3.42;;;12.20;82.30;;;;;;5026233;28;20425;-69
2023/06/01 06:11:21;;;;;;;6.25;3.17;;;12.20;82.30;;;;;;5030590;28;20036;-69
2023/06/01 06:13:49;;;;;;;8.88;3.88;;;12.20;82.80;;;;;;5040419;28;20041;-69
2023/06/01 06:16:15;;;;;;;6.82;3.40;;;12.20;83.20;;;;;;5045927;28;20072;-69
2023/06/01 06:18:40;;;;;;;11.40;3.10;;;12.20;83.30;;;;;;5027678;28;20472;-68
2023/06/01 06:21:06;;;;;;;7.57;3.40;;;12.20;83.70;;;;;;5045328;28;20152;-68
2023/06/01 06:23:32;;;;;;;8.10;3.35;;;12.10;84.50;;;;;;5044597;28;20405;-68
2023/06/01 06:25:58;;;;;;;6.82;3.67;;;12.20;84.70;;;;;;5040298;28;20254;-66
2023/06/01 06:28:23;;;;;;;7.53;2.95;;;12.20;85.10;;;;;;5041219;28;20123;-68
2023/06/01 06:30:49;;;;;;;4.95;2.80;;;12.20;85.40;;;;;;5040012;28;20636;-68
2023/06/01 06:33:15;;;;;;;7.13;2.92;;;12.30;85.50;;;;;;5043481;28;20033;-69
2023/06/01 06:35:41;;;;;;;4.07;2.30;;;12.40;85.60;;;;;;5041273;28;20045;-68
2023/06/01 06:38:07;;;;;;;6.13;2.40;;;12.40;85.70;;;;;;5041025;28;20056;-66
2023/06/01 06:40:33;;;;;;;8.70;2.75;;;12.40;85.70;;;;;;5042409;28;20461;-69
2023/06/01 06:42:58;;;;;;;4.53;2.25;;;12.40;85.90;;;;;;5045240;28;20341;-69
2023/06/01 06:45:24;;;;;;;6.18;2.55;;;12.50;86.10;;;;;;5042703;28;20033;-68
2023/06/01 06:47:49;;;;;;;4.05;2.15;;;12.60;86.20;;;;;;5047169;28;20075;-69
2023/06/01 06:50:15;;;;;;;7.45;2.10;;;12.60;86.40;;;;;;5048245;28;20041;-69
2023/06/01 06:52:41;;;;;;;6.53;1.98;;;12.70;86.60;;;;;;5034678;28;20033;-69
2023/06/01 06:55:07;;;;;;;6.13;2.30;;;12.70;86.40;;;;;;5040977;28;20095;-69
2023/06/01 06:57:34;;;;;;;4.20;1.85;;;12.70;86.40;;;;;;5043206;28;21225;-69
2023/06/01 07:00:00;;;;;;;3.92;2.03;;;12.70;86.40;;;;;;5034188;28;20040;-69
2023/06/01 07:02:26;;;;;;;6.47;1.90;;;12.70;86.30;;;;;;5035983;28;20349;-69
2023/06/01 07:04:51;;;;;;;3.55;1.90;;;12.70;86.40;;;;;;5041747;28;20041;-69
2023/06/01 07:07:17;;;;;;;3.75;2.00;;;12.80;86.50;;;;;;5044238;28;20455;-67
2023/06/01 07:09:43;;;;;;;3.55;1.30;;;12.80;86.40;;;;;;5039747;28;20457;-68
2023/06/01 07:12:08;;;;;;;5.18;1.88;;;12.90;86.20;;;;;;5040305;28;20474;-68
2023/06/01 07:14:34;;;;;;;4.70;2.00;;;12.90;86.10;;;;;;5029684;28;20624;-68
2023/06/01 07:17:00;;;;;;;4.25;1.80;;;13.00;85.90;;;;;;5047927;28;20045;-66
2023/06/01 07:19:32;;;;;;;4.18;2.10;;;13.10;85.90;;;;;;5039969;28;20116;-68
2023/06/01 07:22:01;;;;;;;4.97;1.80;;;13.20;85.40;;;;;;5043238;28;20040;-69
2023/06/01 07:24:27;;;;;;;2.13;1.60;;;13.20;86.20;;;;;;5039559;28;20322;-69
2023/06/01 07:26:53;;;;;;;3.03;1.33;;;13.20;85.60;;;;;;5040242;28;20150;-68
2023/06/01 07:29:20;;;;;;;2.42;1.45;;;13.10;86.00;;;;;;5044389;28;20397;-68
2023/06/01 07:31:46;;;;;;;2.45;1.50;;;12.90;86.90;;;;;;5045293;28;20438;-68
2023/06/01 07:34:12;;;;;;;4.65;1.63;;;12.80;87.50;;;;;;5046300;28;20191;-69
2023/06/01 07:36:38;;;;;;;4.60;1.67;;;12.80;88.00;;;;;;5049197;28;20118;-70
2023/06/01 07:39:08;;;;;;;3.33;1.67;;;12.80;88.00;;;;;;5046191;28;20055;-66
2023/06/01 07:41:34;;;;;;;3.92;1.90;;;12.80;88.30;;;;;;5031305;28;20448;-68
2023/06/01 07:44:00;;;;;;;6.85;1.75;;;12.80;88.50;;;;;;5047783;28;20147;-69
2023/06/01 07:46:26;;;;;;;3.85;2.10;;;12.80;88.50;;;;;;5044246;28;20572;-69
2023/06/01 07:48:52;;;;;;;3.15;1.83;;;12.90;88.40;;;;;;5046813;28;20052;-69
2023/06/01 07:51:17;;;;;;;3.80;1.80;;;12.90;88.40;;;;;;5028659;28;20048;-69
2023/06/01 07:53:43;;;;;;;5.05;2.08;;;12.90;88.30;;;;;;5042579;28;21055;-69
2023/06/01 07:56:10;;;;;;;3.78;1.90;;;13.00;88.20;;;;;;5040353;28;20051;-69
2023/06/01 07:58:36;;;;;;;3.75;2.03;;;13.00;88.00;;;;;;5048955;28;20037;-68
2023/06/01 08:01:02;;;;;;;3.85;2.20;;;13.10;88.00;;;;;;5044236;28;20048;-69
2023/06/01 08:03:28;;;;;;;3.70;1.70;;;13.10;87.90;;;;;;5038258;28;20050;-68
2023/06/01 08:05:59;;;;;;;3.08;1.83;;;13.10;87.90;;;;;;5035953;28;20676;-69
2023/06/01 08:08:25;;;;;;;2.42;1.40;;;13.10;87.80;;;;;;5045916;28;20040;-69
2023/06/01 08:10:51;;;;;;;2.40;1.20;;;13.20;87.70;;;;;;5042896;28;20135;-68
2023/06/01 08:13:18;;;;;;;1.98;1.60;;;13.20;87.90;;;;;;5045243;28;20342;-70
2023/06/01 08:15:47;;;;;;;2.17;1.10;;;13.20;87.70;;;;;;5033884;28;20527;-69
2023/06/01 08:18:13;;;;;;;2.33;1.35;;;13.20;87.70;;;;;;5040966;28;20045;-69
2023/06/01 08:20:39;;;;;;;5.30;1.50;;;13.20;87.80;;;;;;5049046;28;20129;-68
2023/06/01 08:23:05;;;;;;;3.35;1.40;;;13.20;87.60;;;;;;5048698;28;20049;-68
2023/06/01 08:25:31;;;;;;;1.95;1.08;;;13.30;87.50;;;;;;5046818;28;20516;-69
2023/06/01 08:27:57;;;;;;;3.17;1.50;;;13.40;87.20;;;;;;5046814;28;20036;-68
2023/06/01 08:30:25;;;;;;;3.80;1.83;;;13.30;87.00;;;;;;5050662;28;20033;-68
2023/06/01 08:32:51;;;;;;;3.45;2.00;;;13.30;86.70;;;;;;5045229;28;20516;-69
2023/06/01 08:35:18;;;;;;;4.70;1.95;;;13.20;86.50;;;;;;5047113;28;20040;-69
2023/06/01 08:37:44;;;;;;;3.22;2.08;;;13.20;86.40;;;;;;5021424;28;20033;-68
2023/06/01 08:40:10;;;;;;;2.53;1.60;;;13.30;86.40;;;;;;5038922;28;20060;-68
2023/06/01 08:42:44;;;;;;;6.43;1.80;;;13.30;86.10;;;;;;5044292;28;20090;-67
2023/06/01 08:45:11;;;;;;;4.05;1.85;;;13.40;85.80;;;;;;5018469;28;20120;-68
2023/06/01 08:47:38;;;;;;;3.55;2.20;;;13.50;85.50;;;;;;5033060;28;20041;-70
2023/06/01 08:50:04;;;;;;;3.97;1.30;;;13.50;85.00;;;;;;5037408;28;20029;-66
2023/06/01 08:52:31;;;;;;;4.57;1.77;;;13.60;84.70;;;;;;5041498;28;20132;-66
2023/06/01 08:55:02;;;;;;;3.22;1.60;;;13.70;84.70;;;;;;5037375;28;20511;-67
2023/06/01 08:57:31;;;;;;;6.22;2.20;;;13.80;84.10;;;;;;5027100;28;20037;-67
2023/06/01 08:59:58;;;;;;;4.88;2.00;;;13.80;84.00;;;;;;5045188;28;20108;-67
2023/06/01 09:02:25;;;;;;;4.28;1.80;;;13.80;84.00;;;;;;5041937;28;20056;-65
2023/06/01 09:04:52;;;;;;;4.30;1.48;;;13.90;83.90;;;;;;5028940;28;20048;-67
2023/06/01 09:07:19;;;;;;;4.97;1.92;;;14.00;83.60;;;;;;5045899;28;20091;-66
2023/06/01 09:09:45;;;;;;;4.18;1.70;;;14.10;83.30;;;;;;5039139;28;20045;-67
2023/06/01 09:12:25;;;;;;;6.50;2.05;;;14.20;82.90;;;;;;5045560;28;20041;-66
2023/06/01 09:15:17;;;;;;;2.28;1.45;;;14.20;82.30;;;;;;5026862;28;20052;-67
2023/06/01 09:17:46;;;;;;;4.97;2.00;;;14.30;82.00;;;;;;5037936;28;20033;-66
2023/06/01 09:20:21;;;;;;;4.57;1.63;;;14.40;82.10;;;;;;5046984;28;20040;-67
2023/06/01 09:22:47;;;;;;;3.63;1.90;;;14.50;81.40;;;;;;5041179;28;20736;-66
2023/06/01 09:25:14;;;;;;;5.75;1.80;;;14.50;81.10;;;;;;5046565;28;20039;-67
2023/06/01 09:27:45;;;;;;;2.97;1.52;;;14.50;81.00;;;;;;5048712;28;20218;-66
2023/06/01 09:30:12;;;;;;;2.72;1.73;;;14.50;80.50;;;;;;5030499;28;20632;-66
2023/06/01 09:32:38;;;;;;;7.13;2.22;;;14.40;80.40;;;;;;5047941;28;20441;-66
2023/06/01 09:35:07;;;;;;;3.65;1.55;;;14.50;80.20;;;;;;5049196;28;20037;-67
2023/06/01 09:37:32;;;;;;;2.97;1.90;;;14.50;80.00;;;;;;5034980;28;20124;-66
2023/06/01 09:39:58;;;;;;;4.75;2.25;;;14.40;79.90;;;;;;5044928;28;20500;-66
2023/06/01 09:42:34;;;;;;;5.68;2.45;;;14.30;79.80;;;;;;5058982;28;20499;-67
2023/06/01 09:45:20;;;;;;;5.93;2.22;;;14.20;79.00;;;;;;5050382;28;20166;-66
2023/06/01 09:47:47;;;;;;;4.75;2.33;;;14.10;79.10;;;;;;5052245;28;20126;-66
2023/06/01 09:50:32;;;;;;;5.75;2.75;;;14.10;79.90;;;;;;5045631;28;20037;-66
2023/06/01 09:52:58;;;;;;;6.70;2.70;;;14.20;79.00;;;;;;5039672;28;20559;-66
2023/06/01 09:55:24;;;;;;;6.40;3.05;;;14.20;79.40;;;;;;5044340;28;20399;-66
2023/06/01 09:57:50;;;;;;;8.52;2.80;;;14.10;79.50;;;;;;5044087;28;20102;-66
2023/06/01 10:00:24;;;;;;;7.88;2.75;;;14.10;79.60;;;;;;5049977;28;20487;-67
2023/06/01 10:02:52;;;;;;;6.78;3.08;;;14.00;79.50;;;;;;5036992;28;20045;-66
2023/06/01 10:05:18;;;;;;;9.30;2.95;;;14.00;79.70;;;;;;5028182;28;20778;-67
2023/06/01 10:07:45;;;;;;;8.15;3.03;;;14.00;79.50;;;;;;5037713;28;20120;-66
2023/06/01 10:10:14;;;;;;;8.80;2.80;;;14.00;79.50;;;;;;5042621;28;20037;-66
2023/06/01 10:12:40;;;;;;;8.73;3.25;;;14.00;79.40;;;;;;5035147;28;20455;-66
2023/06/01 10:15:06;;;;;;;8.05;3.20;;;14.00;79.20;;;;;;5044847;28;20103;-67
2023/06/01 10:17:33;;;;;;;6.00;2.95;;;14.00;78.70;;;;;;5039195;28;20574;-67
2023/06/01 10:20:01;;;;;;;10.65;3.50;;;14.10;78.60;;;;;;5030137;28;20375;-67
2023/06/01 10:22:28;;;;;;;9.23;2.72;;;14.20;78.30;;;;;;5032280;28;20040;-67
2023/06/01 10:25:00;;;;;;;11.98;3.10;;;14.20;78.00;;;;;;5027879;28;20087;-66
2023/06/01 10:27:51;;;;;;;6.93;2.90;;;14.30;77.60;;;;;;5037829;28;20520;-67
2023/06/01 10:30:16;;;;;;;7.35;2.72;;;14.40;77.40;;;;;;5028401;28;20224;-66
2023/06/01 10:32:48;;;;;;;9.48;2.97;;;14.40;77.20;;;;;;5036635;28;21629;-67
2023/06/01 10:35:40;;;;;;;8.35;2.60;;;14.40;76.30;;;;;;5033979;28;20057;-67
2023/06/01 10:38:14;;;;;;;6.78;2.63;;;14.50;74.80;;;;;;5027309;28;20053;-66
2023/06/01 10:40:41;;;;;;;9.43;2.60;;;14.50;75.60;;;;;;5045380;28;20052;-67
2023/06/01 10:43:08;;;;;;;7.57;2.72;;;14.60;75.30;;;;;;5044984;28;20115;-65
2023/06/01 10:45:34;;;;;;;6.90;2.33;;;14.60;75.00;;;;;;5046994;28;20234;-67
2023/06/01 10:48:01;;;;;;;9.60;2.55;;;14.80;74.70;;;;;;5046974;28;20536;-67
2023/06/01 10:50:26;;;;;;;11.10;2.45;;;14.90;74.20;;;;;;5029190;28;20075;-67
2023/06/01 10:52:54;;;;;;;8.32;3.00;;;15.00;74.00;;;;;;5042727;28;20127;-67
2023/06/01 10:55:24;;;;;;;6.63;3.53;;;14.90;73.70;;;;;;5047777;28;20119;-68
2023/06/01 10:57:50;;;;;;;;;;;15.00;73.50;;;;;;5045087;28;20070;-65
2023/06/01 11:00:20;;;;;;;8.43;2.88;;;15.00;71.30;;;;;;5047820;28;19917;-66
2023/06/01 11:03:03;;;;;;;9.48;3.00;;;15.00;73.40;;;;;;5043152;28;20052;-66
2023/06/01 11:05:51;;;;;;;10.48;2.83;;;15.10;71.10;;;;;;5046544;28;20041;-70
2023/06/01 11:08:22;;;;;;;10.02;3.17;;;15.20;71.50;;;;;;5043044;28;20068;-67
2023/06/01 11:10:54;;;;;;;7.30;2.72;;;15.40;71.70;;;;;;5040941;28;20361;-67
2023/06/01 11:13:25;;;;;;;4.20;2.40;;;15.50;71.40;;;;;;5033316;28;20562;-67
2023/06/01 11:16:22;;;;;;;8.95;2.75;;;15.60;70.90;;;;;;5045970;28;20113;-68
2023/06/01 11:18:58;;;;;;;7.18;2.53;;;15.60;68.50;;;;;;5042889;28;20048;-66
2023/06/01 11:21:43;;;;;;;6.47;2.35;;;15.80;69.00;;;;;;5032848;28;20037;-67
2023/06/01 11:24:11;;;;;;;6.18;2.35;;;15.80;68.70;;;;;;5038492;28;20149;-67
2023/06/01 11:26:40;;;;;;;9.15;3.13;;;15.90;68.70;;;;;;5033112;28;20040;-67
2023/06/01 11:29:19;;;;;;;6.05;2.58;;;15.90;68.70;;;;;;5030065;28;20064;-66
2023/06/01 11:31:53;;;;;;;4.82;2.72;;;15.90;66.80;;;;;;5041008;28;20121;-67
2023/06/01 11:34:34;;;;;;;10.90;2.75;;;15.90;68.10;;;;;;5034386;28;20037;-66
2023/06/01 11:37:01;;;;;;;7.82;2.50;;;16.00;66.50;;;;;;5043276;28;20041;-68
2023/06/01 11:39:28;;;;;;;8.00;3.45;;;16.10;67.60;;;;;;5041152;28;20497;-68
2023/06/01 11:42:15;;;;;;;5.32;3.10;;;16.10;66.90;;;;;;5035061;28;20049;-67
2023/06/01 11:44:48;;;;;;;8.23;3.20;;;16.00;65.60;;;;;;5044175;28;20032;-68
2023/06/01 11:47:14;;;;;;;6.55;3.22;;;16.10;65.90;;;;;;5040064;28;20139;-66
2023/06/01 11:49:46;;;;;;;3.95;2.63;;;16.10;66.60;;;;;;5042313;28;20104;-68
2023/06/01 11:52:12;;;;;;;6.03;2.92;;;16.20;65.90;;;;;;5037936;28;20157;-67
2023/06/01 11:54:38;;;;;;;6.28;3.00;;;16.30;65.60;;;;;;5041221;28;20483;-66
2023/06/01 11:57:07;;;;;;;6.75;2.90;;;16.30;65.40;;;;;;5042053;28;20064;-67
2023/06/01 11:59:46;;;;;;;7.75;2.70;;;16.30;65.20;;;;;;5028500;28;20033;-66
2023/06/01 12:02:26;;;;;;;6.55;2.40;;;16.40;64.50;;;;;;5035982;28;20048;-67
2023/06/01 12:04:59;;;;;;;7.63;2.67;;;16.40;62.90;;;;;;5024943;28;20571;-66
2023/06/01 12:07:25;;;;;;;8.80;3.20;;;16.50;63.70;;;;;;5031224;28;20183;-67
2023/06/01 12:09:56;;;;;;;8.30;2.88;;;16.60;63.80;;;;;;5042029;28;20095;-67
2023/06/01 12:12:25;;;;;;;9.95;3.05;;;16.70;63.30;;;;;;5044524;28;20090;-67
2023/06/01 12:14:51;;;;;;;5.72;2.83;;;16.70;63.10;;;;;;5061720;28;20044;-67
2023/06/01 12:17:18;;;;;;;8.43;2.28;;;16.80;63.40;;;;;;5046359;28;20045;-66
2023/06/01 12:19:48;;;;;;;4.32;2.50;;;16.90;63.00;;;;;;5030128;28;20396;-66
2023/06/01 12:22:14;;;;;;;6.25;2.50;;;16.90;62.20;;;;;;5042555;28;20048;-66
2023/06/01 12:24:41;;;;;;;7.65;2.83;;;17.20;62.10;;;;;;5059324;28;20037;-66
2023/06/01 12:27:19;;;;;;;6.03;2.40;;;17.10;62.00;;;;;;5041623;28;21150;-66
2023/06/01 12:29:47;;;;;;;8.23;3.83;;;17.20;60.90;;;;;;5045779;28;20033;-67
2023/06/01 12:32:15;;;;;;;4.82;2.45;;;17.20;61.30;;;;;;5046671;28;20445;-67
2023/06/01 12:34:47;;;;;;;7.13;2.38;;;17.30;61.20;;;;;;5031652;28;20140;-66
2023/06/01 12:37:14;;;;;;;7.53;2.35;;;17.30;61.20;;;;;;5042145;28;20045;-66
2023/06/01 12:39:41;;;;;;;6.10;2.55;;;17.40;61.20;;;;;;5025654;28;20391;-67
2023/06/01 12:42:09;;;;;;;7.28;2.40;;;17.40;61.00;;;;;;5045143;28;20516;-66
2023/06/01 12:44:35;;;;;;;7.13;2.33;;;17.40;60.70;;;;;;5064853;28;20042;-67
2023/06/01 12:47:01;;;;;;;4.07;2.10;;;17.50;60.50;;;;;;5067868;28;20052;-66
2023/06/01 12:49:27;;;;;;;7.68;2.35;;;17.60;60.30;;;;;;5044712;28;20037;-66